createdAt,value
2022-09-17T00:01:27.241Z,1.63
2022-09-17T00:03:57.464Z,1.67
2022-09-17T00:06:27.110Z,1.90
2022-09-17T00:08:55.444Z,1.75
2022-09-17T00:11:25.609Z,2.05
2022-09-17T00:13:54.944Z,1.75
2022-09-17T00:16:28.108Z,1.58
2022-09-17T00:18:56.778Z,1.88
2022-09-17T00:21:25.400Z,1.77
2022-09-17T00:23:57.935Z,1.88
2022-09-17T00:26:26.208Z,1.77
2022-09-17T00:28:55.585Z,2.33
2022-09-17T00:31:26.005Z,1.75
2022-09-17T00:33:54.451Z,1.70
2022-09-17T00:36:23.216Z,2.22
2022-09-17T00:38:52.249Z,1.75
2022-09-17T00:41:20.491Z,1.85
2022-09-17T00:43:50.946Z,2.10
2022-09-17T00:46:34.307Z,2.35
2022-09-17T00:49:08.538Z,1.77
2022-09-17T00:51:40.481Z,1.60
2022-09-17T00:54:11.789Z,1.65
2022-09-17T00:56:43.517Z,2.00
2022-09-17T00:59:11.782Z,2.30
2022-09-17T01:01:41.033Z,2.08
2022-09-17T01:04:17.245Z,1.67
2022-09-17T01:06:55.499Z,1.75
2022-09-17T01:09:35.224Z,1.95
2022-09-17T01:12:18.957Z,1.92
2022-09-17T01:17:30.566Z,1.55
2022-09-17T01:20:37.154Z,1.73
2022-09-17T01:23:31.445Z,2.25
2022-09-17T01:26:22.103Z,1.80
2022-09-17T01:28:57.977Z,1.83
2022-09-17T01:31:41.416Z,1.20
2022-09-17T01:34:19.287Z,1.92
2022-09-17T01:36:58.208Z,2.00
2022-09-17T01:39:35.449Z,1.85
2022-09-17T01:42:14.500Z,1.45
2022-09-17T01:44:52.348Z,1.50
2022-09-17T01:47:24.993Z,1.70
2022-09-17T01:49:56.684Z,1.90
2022-09-17T01:52:27.856Z,1.98
2022-09-17T01:55:01.852Z,1.70
2022-09-17T01:57:34.774Z,1.55
2022-09-17T02:00:06.056Z,1.90
2022-09-17T02:02:45.352Z,2.25
2022-09-17T02:07:49.072Z,1.80
2022-09-17T02:10:20.533Z,1.70
2022-09-17T02:12:56.232Z,1.90
2022-09-17T02:15:28.651Z,2.45
2022-09-17T02:18:04.774Z,1.20
2022-09-17T02:20:40.271Z,1.98
2022-09-17T02:23:13.742Z,1.60
2022-09-17T02:25:46.837Z,2.28
2022-09-17T02:28:21.341Z,2.78
2022-09-17T02:30:49.387Z,1.55
2022-09-17T02:33:19.956Z,2.22
2022-09-17T02:35:48.494Z,2.10
2022-09-17T02:38:23.280Z,2.17
2022-09-17T02:40:55.843Z,2.08
2022-09-17T02:43:31.723Z,1.97
2022-09-17T02:46:16.482Z,1.95
2022-09-17T02:49:11.267Z,2.40
2022-09-17T02:51:50.120Z,2.17
2022-09-17T02:54:25.716Z,2.05
2022-09-17T02:57:01.550Z,2.58
2022-09-17T02:59:35.258Z,2.08
2022-09-17T03:02:08.934Z,2.35
2022-09-17T03:04:40.363Z,2.30
2022-09-17T03:07:10.121Z,1.92
2022-09-17T03:09:38.080Z,2.35
2022-09-17T03:12:06.425Z,1.67
2022-09-17T03:14:34.335Z,2.60
2022-09-17T03:17:02.637Z,2.40
2022-09-17T03:19:30.529Z,2.50
2022-09-17T03:21:59.811Z,1.75
2022-09-17T03:24:28.165Z,1.70
2022-09-17T03:26:56.031Z,1.85
2022-09-17T03:29:23.935Z,2.13
2022-09-17T03:31:51.821Z,1.73
2022-09-17T03:34:20.998Z,1.90
2022-09-17T03:36:48.875Z,1.63
2022-09-17T03:39:18.143Z,1.88
2022-09-17T03:41:46.033Z,1.88
2022-09-17T03:44:15.381Z,1.92
2022-09-17T03:46:43.325Z,1.75
2022-09-17T03:49:11.247Z,1.90
2022-09-17T03:51:39.154Z,1.70
2022-09-17T03:54:07.240Z,2.10
2022-09-17T03:56:36.538Z,1.88
2022-09-17T03:59:04.660Z,1.83
2022-09-17T04:01:32.609Z,2.13
2022-09-17T04:04:00.684Z,2.20
2022-09-17T04:06:28.658Z,1.92
2022-09-17T04:08:56.902Z,2.10
2022-09-17T04:11:24.788Z,2.40
2022-09-17T04:13:54.245Z,2.17
2022-09-17T04:16:22.255Z,1.65
2022-09-17T04:18:50.179Z,1.80
2022-09-17T04:21:18.078Z,1.40
2022-09-17T04:23:45.981Z,3.10
2022-09-17T04:26:14.545Z,1.88
2022-09-17T04:28:42.433Z,1.65
2022-09-17T04:31:11.794Z,1.60
2022-09-17T04:33:39.724Z,1.83
2022-09-17T04:36:07.713Z,1.90
2022-09-17T04:38:35.639Z,1.80
2022-09-17T04:41:03.512Z,1.75
2022-09-17T04:43:31.396Z,2.22
2022-09-17T04:45:59.270Z,1.60
2022-09-17T04:48:28.516Z,1.98
2022-09-17T04:50:56.412Z,1.70
2022-09-17T04:53:24.273Z,1.90
2022-09-17T04:55:52.168Z,1.90
2022-09-17T04:58:20.063Z,1.60
2022-09-17T05:00:48.027Z,2.22
2022-09-17T05:03:15.912Z,1.58
2022-09-17T05:05:45.190Z,1.67
2022-09-17T05:08:13.070Z,2.17
2022-09-17T05:10:41.099Z,1.60
2022-09-17T05:13:08.963Z,1.98
2022-09-17T05:15:36.827Z,1.65
2022-09-17T05:18:05.062Z,1.92
2022-09-17T05:20:32.929Z,2.22
2022-09-17T05:23:02.183Z,2.25
2022-09-17T05:25:30.971Z,2.83
2022-09-17T05:28:00.672Z,1.75
2022-09-17T05:30:28.557Z,2.10
2022-09-17T05:33:03.431Z,2.15
2022-09-17T05:35:31.985Z,2.08
2022-09-17T05:38:02.822Z,2.20
2022-09-17T05:40:32.793Z,2.10
2022-09-17T05:43:01.816Z,1.88
2022-09-17T05:45:30.572Z,2.30
2022-09-17T05:48:00.029Z,2.97
2022-09-17T05:50:29.153Z,2.35
2022-09-17T05:52:57.181Z,1.63
2022-09-17T05:55:27.799Z,1.77
2022-09-17T05:57:55.779Z,1.83
2022-09-17T06:00:23.668Z,2.00
2022-09-17T06:02:56.154Z,1.75
2022-09-17T06:05:24.101Z,1.63
2022-09-17T06:07:52.589Z,2.25
2022-09-17T06:10:20.883Z,1.80
2022-09-17T06:12:50.134Z,2.95
2022-09-17T06:15:18.371Z,2.28
2022-09-17T06:17:46.286Z,3.10
2022-09-17T06:20:15.775Z,3.25
2022-09-17T06:22:43.685Z,2.65
2022-09-17T06:25:12.008Z,2.67
2022-09-17T06:27:40.127Z,4.20
2022-09-17T06:30:10.058Z,3.83
2022-09-17T06:32:37.994Z,3.55
2022-09-17T06:35:06.549Z,3.28
2022-09-17T06:37:36.300Z,2.80
2022-09-17T06:40:04.654Z,3.38
2022-09-17T06:42:32.637Z,3.70
2022-09-17T06:45:05.537Z,3.55
2022-09-17T06:47:37.440Z,3.05
2022-09-17T06:50:05.988Z,2.80
2022-09-17T06:52:34.146Z,3.95
2022-09-17T06:55:02.081Z,2.92
2022-09-17T06:57:29.968Z,3.55
2022-09-17T06:59:57.849Z,2.92
2022-09-17T07:02:25.902Z,2.95
2022-09-17T07:04:55.381Z,2.88
2022-09-17T07:07:23.274Z,2.47
2022-09-17T07:09:51.211Z,2.95
2022-09-17T07:12:19.200Z,3.40
2022-09-17T07:14:47.909Z,2.97
2022-09-17T07:17:16.240Z,2.53
2022-09-17T07:19:44.145Z,3.00
2022-09-17T07:22:14.056Z,3.58
2022-09-17T07:24:41.942Z,2.28
2022-09-17T07:27:09.835Z,2.38
2022-09-17T07:29:37.772Z,2.75
2022-09-17T07:32:05.838Z,2.15
2022-09-17T07:34:33.851Z,2.35
2022-09-17T07:37:01.729Z,2.75
2022-09-17T07:39:31.130Z,2.03
2022-09-17T07:41:58.987Z,2.60
2022-09-17T07:44:27.009Z,2.50
2022-09-17T07:46:54.955Z,2.55
2022-09-17T07:49:23.056Z,2.65
2022-09-17T07:51:50.954Z,1.80
2022-09-17T07:54:18.945Z,2.75
2022-09-17T07:56:48.264Z,2.90
2022-09-17T07:59:16.149Z,2.33
2022-09-17T08:01:44.168Z,2.05
2022-09-17T08:04:12.137Z,2.25
2022-09-17T08:06:41.041Z,2.25
2022-09-17T08:09:10.788Z,2.28
2022-09-17T08:11:54.972Z,3.20
2022-09-17T08:14:29.435Z,1.88
2022-09-17T08:16:58.177Z,2.63
2022-09-17T08:19:26.109Z,1.95
2022-09-17T08:21:54.069Z,1.98
2022-09-17T08:24:22.048Z,2.15
2022-09-17T08:26:49.951Z,2.85
2022-09-17T08:29:17.809Z,2.08
2022-09-17T08:31:47.190Z,2.25
2022-09-17T08:34:15.250Z,3.15
2022-09-17T08:36:43.105Z,1.92
2022-09-17T08:39:12.200Z,2.13
2022-09-17T08:42:06.603Z,1.60
2022-09-17T08:44:41.461Z,1.92
2022-09-17T08:47:21.776Z,1.70
2022-09-17T08:49:53.835Z,2.10
2022-09-17T08:52:49.907Z,2.78
2022-09-17T08:55:35.009Z,2.08
2022-09-17T08:58:32.117Z,2.30
2022-09-17T09:01:12.396Z,1.75
2022-09-17T09:03:59.671Z,1.80
2022-09-17T09:06:33.946Z,2.28
2022-09-17T09:09:06.575Z,1.73
2022-09-17T09:11:35.570Z,1.77
2022-09-17T09:14:12.435Z,2.35
2022-09-17T09:16:45.163Z,1.50
2022-09-17T09:19:22.275Z,2.10
2022-09-17T09:22:02.905Z,2.42
2022-09-17T09:24:39.319Z,1.80
2022-09-17T09:27:17.688Z,2.05
2022-09-17T09:29:58.721Z,1.85
2022-09-17T09:32:42.671Z,1.80
2022-09-17T09:35:19.697Z,1.85
2022-09-17T09:37:55.184Z,2.13
2022-09-17T09:40:44.230Z,2.13
2022-09-17T09:43:20.927Z,1.85
2022-09-17T09:46:03.755Z,1.58
2022-09-17T09:48:39.657Z,1.80
2022-09-17T09:51:23.236Z,2.17
2022-09-17T09:56:50.456Z,1.95
2022-09-17T09:59:20.201Z,2.38
2022-09-17T10:01:48.543Z,2.38
2022-09-17T10:04:19.919Z,2.10
2022-09-17T10:06:51.528Z,1.73
2022-09-17T10:09:22.192Z,1.83
2022-09-17T10:12:17.904Z,1.50
2022-09-17T10:14:47.179Z,1.67
2022-09-17T10:17:21.550Z,2.22
2022-09-17T10:20:20.714Z,2.28
2022-09-17T10:22:52.451Z,1.60
2022-09-17T10:25:28.588Z,2.20
2022-09-17T10:27:57.438Z,1.80
2022-09-17T10:30:26.025Z,1.80
2022-09-17T10:33:18.804Z,2.55
2022-09-17T10:35:58.488Z,2.20
2022-09-17T10:38:35.747Z,1.80
2022-09-17T10:41:22.706Z,1.65
2022-09-17T10:43:51.168Z,2.00
2022-09-17T10:46:27.604Z,1.90
2022-09-17T10:49:10.277Z,1.95
2022-09-17T10:51:39.303Z,1.95
2022-09-17T10:54:42.801Z,2.55
2022-09-17T10:57:21.828Z,2.53
2022-09-17T11:00:07.891Z,2.05
2022-09-17T11:03:13.248Z,2.33
2022-09-17T11:06:14.487Z,2.38
2022-09-17T11:08:53.590Z,2.03
2022-09-17T11:11:35.548Z,2.00
2022-09-17T11:14:16.594Z,2.20
2022-09-17T11:16:54.973Z,1.88
2022-09-17T11:19:33.885Z,1.80
2022-09-17T11:22:10.977Z,1.70
2022-09-17T11:24:54.658Z,1.27
2022-09-17T11:27:38.769Z,1.85
2022-09-17T11:30:15.967Z,1.88
2022-09-17T11:33:05.669Z,1.48
2022-09-17T11:35:36.371Z,1.35
2022-09-17T11:38:08.079Z,1.80
2022-09-17T11:40:42.130Z,1.50
2022-09-17T11:43:20.610Z,1.63
2022-09-17T11:45:58.959Z,1.25
2022-09-17T11:48:35.025Z,1.42
2022-09-17T11:51:11.857Z,1.95
2022-09-17T11:53:45.203Z,1.70
2022-09-17T11:58:52.113Z,1.23
2022-09-17T12:01:27.574Z,1.65
2022-09-17T12:04:01.061Z,1.77
2022-09-17T12:06:39.690Z,1.40
2022-09-17T12:09:14.377Z,1.20
2022-09-17T12:11:48.307Z,1.45
2022-09-17T12:14:24.796Z,1.45
2022-09-17T12:16:57.938Z,2.00
2022-09-17T12:19:33.649Z,0.93
2022-09-17T12:22:08.718Z,1.10
2022-09-17T12:24:36.942Z,1.67
2022-09-17T12:27:14.326Z,1.23
2022-09-17T12:30:04.173Z,1.20
2022-09-17T12:32:56.763Z,1.13
2022-09-17T12:36:03.027Z,1.10
2022-09-17T12:39:10.024Z,1.50
2022-09-17T12:41:49.060Z,1.67
2022-09-17T12:44:42.207Z,1.30
2022-09-17T12:47:30.155Z,1.53
2022-09-17T12:50:12.078Z,0.95
2022-09-17T12:52:58.118Z,1.20
2022-09-17T12:55:45.584Z,1.00
2022-09-17T12:58:28.941Z,1.40
2022-09-17T13:01:03.545Z,1.40
2022-09-17T13:03:38.746Z,1.05
2022-09-17T13:06:36.219Z,1.08
2022-09-17T13:09:41.854Z,0.73
2022-09-17T13:12:22.652Z,1.08
2022-09-17T13:18:20.347Z,1.00
2022-09-17T13:21:04.295Z,1.50
2022-09-17T13:23:40.367Z,1.40
2022-09-17T13:26:09.825Z,1.00
2022-09-17T13:28:46.890Z,1.45
2022-09-17T13:31:21.526Z,1.05
2022-09-17T13:33:54.383Z,1.65
2022-09-17T13:36:42.319Z,1.20
2022-09-17T13:39:12.437Z,1.30
2022-09-17T13:41:42.976Z,1.33
2022-09-17T13:44:12.626Z,1.60
2022-09-17T13:46:41.218Z,1.05
2022-09-17T13:49:16.351Z,0.90
2022-09-17T13:51:51.204Z,1.63
2022-09-17T13:54:22.370Z,0.95
2022-09-17T13:57:07.051Z,0.95
2022-09-17T13:59:37.156Z,1.58
2022-09-17T14:02:35.294Z,1.10
2022-09-17T14:05:29.192Z,1.48
2022-09-17T14:10:45.086Z,1.02
2022-09-17T14:13:29.789Z,1.23
2022-09-17T14:16:05.387Z,1.05
2022-09-17T14:18:44.557Z,1.50
2022-09-17T14:21:17.841Z,1.95
2022-09-17T14:26:27.173Z,1.27
2022-09-17T14:29:03.369Z,1.20
2022-09-17T14:31:35.344Z,1.40
2022-09-17T14:34:06.064Z,1.30
2022-09-17T14:36:38.773Z,0.90
2022-09-17T14:39:16.402Z,0.95
2022-09-17T14:41:45.791Z,1.17
2022-09-17T14:44:16.545Z,1.20
2022-09-17T14:46:52.464Z,1.00
2022-09-17T14:49:23.710Z,1.10
2022-09-17T14:51:51.877Z,1.30
2022-09-17T14:54:24.803Z,0.93
2022-09-17T14:57:01.424Z,1.10
2022-09-17T14:59:43.288Z,0.70
2022-09-17T15:02:30.282Z,0.50
2022-09-17T15:04:58.654Z,0.40
2022-09-17T15:07:27.540Z,0.75
2022-09-17T15:10:07.682Z,0.50
2022-09-17T15:12:36.519Z,0.30
2022-09-17T15:15:04.883Z,0.40
2022-09-17T15:17:34.094Z,0.20
2022-09-17T15:20:07.892Z,0.60
2022-09-17T15:22:40.042Z,0.30
2022-09-17T15:25:16.281Z,0.43
2022-09-17T15:27:47.114Z,0.47
2022-09-17T15:30:19.228Z,0.50
2022-09-17T15:32:51.236Z,0.63
2022-09-17T15:35:30.496Z,0.50
2022-09-17T15:38:21.642Z,0.65
2022-09-17T15:40:49.673Z,0.60
2022-09-17T15:43:22.885Z,0.45
2022-09-17T15:45:50.836Z,0.65
2022-09-17T15:48:41.469Z,0.57
2022-09-17T15:51:25.652Z,0.32
2022-09-17T15:53:55.131Z,0.50
2022-09-17T15:56:27.567Z,0.55
2022-09-17T15:58:59.456Z,0.60
2022-09-17T16:01:51.989Z,0.47
2022-09-17T16:04:25.282Z,1.08
2022-09-17T16:06:58.824Z,1.42
2022-09-17T16:09:42.249Z,1.15
2022-09-17T16:12:14.358Z,1.10
2022-09-17T16:14:50.590Z,0.70
2022-09-17T16:17:43.602Z,0.80
2022-09-17T16:20:17.606Z,1.13
2022-09-17T16:22:47.928Z,0.70
2022-09-17T16:25:16.475Z,0.85
2022-09-17T16:27:49.976Z,1.27
2022-09-17T16:30:20.035Z,1.50
2022-09-17T16:32:48.319Z,0.82
2022-09-17T16:35:18.231Z,1.23
2022-09-17T16:37:49.099Z,1.27
2022-09-17T16:40:17.521Z,0.60
2022-09-17T16:42:47.776Z,1.20
2022-09-17T16:45:15.978Z,1.00
2022-09-17T16:47:44.849Z,1.17
2022-09-17T16:50:15.009Z,0.93
2022-09-17T16:52:43.954Z,1.05
2022-09-17T16:55:13.550Z,1.00
2022-09-17T16:57:41.643Z,1.42
2022-09-17T17:00:14.434Z,0.85
2022-09-17T17:02:42.327Z,0.82
2022-09-17T17:05:11.510Z,0.70
2022-09-17T17:07:39.377Z,1.15
2022-09-17T17:10:09.057Z,0.68
2022-09-17T17:12:37.196Z,1.17
2022-09-17T17:15:07.072Z,1.42
2022-09-17T17:17:36.721Z,1.13
2022-09-17T17:20:06.957Z,0.90
2022-09-17T17:22:34.838Z,1.00
2022-09-17T17:25:03.018Z,0.70
2022-09-17T17:27:30.968Z,1.02
2022-09-17T17:29:59.064Z,0.80
2022-09-17T17:32:26.997Z,1.40
2022-09-17T17:34:56.258Z,1.35
2022-09-17T17:37:24.311Z,1.00
2022-09-17T17:39:52.219Z,0.82
2022-09-17T17:42:20.173Z,1.00
2022-09-17T17:44:48.477Z,1.02
2022-09-17T17:47:17.690Z,1.20
2022-09-17T17:49:45.575Z,2.15
2022-09-17T17:52:14.831Z,1.70
2022-09-17T17:54:42.735Z,1.52
2022-09-17T17:57:11.399Z,1.50
2022-09-17T17:59:39.247Z,1.10
2022-09-17T18:02:07.551Z,0.55
2022-09-17T18:04:35.506Z,1.08
2022-09-17T18:07:03.368Z,1.20
2022-09-17T18:09:32.652Z,1.17
2022-09-17T18:12:00.534Z,0.85
2022-09-17T18:14:28.477Z,1.30
2022-09-17T18:16:56.349Z,1.48
2022-09-17T18:19:24.239Z,0.85
2022-09-17T18:21:52.119Z,1.77
2022-09-17T18:24:20.077Z,1.52
2022-09-17T18:26:49.628Z,0.82
2022-09-17T18:29:17.565Z,0.98
2022-09-17T18:31:45.887Z,1.13
2022-09-17T18:34:15.892Z,1.83
2022-09-17T18:36:50.797Z,1.67
2022-09-17T18:42:10.444Z,1.60
2022-09-17T18:44:38.324Z,0.80
2022-09-17T18:47:06.510Z,1.02
2022-09-17T18:49:34.384Z,1.67
2022-09-17T18:52:02.546Z,1.10
2022-09-17T18:54:30.438Z,1.55
2022-09-17T18:56:58.340Z,1.17
2022-09-17T18:59:27.600Z,0.90
2022-09-17T19:01:55.600Z,1.00
2022-09-17T19:04:23.510Z,0.70
2022-09-17T19:06:51.382Z,1.20
2022-09-17T19:09:19.829Z,1.00
2022-09-17T19:11:47.684Z,1.27
2022-09-17T19:14:15.560Z,1.05
2022-09-17T19:16:44.801Z,1.00
2022-09-17T19:19:12.798Z,1.13
2022-09-17T19:21:40.660Z,0.90
2022-09-17T19:24:09.189Z,1.65
2022-09-17T19:26:37.070Z,1.20
2022-09-17T19:29:06.129Z,1.10
2022-09-17T19:31:34.093Z,1.20
2022-09-17T19:34:03.540Z,0.95
2022-09-17T19:36:31.579Z,1.10
2022-09-17T19:38:59.573Z,1.20
2022-09-17T19:41:27.487Z,1.17
2022-09-17T19:43:56.877Z,1.20
2022-09-17T19:46:26.348Z,0.95
2022-09-17T19:48:56.557Z,1.00
2022-09-17T19:51:28.297Z,1.60
2022-09-17T19:53:56.757Z,1.60
2022-09-17T19:56:26.451Z,1.15
2022-09-17T19:58:54.653Z,1.42
2022-09-17T20:01:22.894Z,1.42
2022-09-17T20:03:50.766Z,1.30
2022-09-17T20:06:20.745Z,1.50
2022-09-17T20:08:51.904Z,1.30
2022-09-17T20:11:21.867Z,1.50
2022-09-17T20:13:50.066Z,1.45
2022-09-17T20:16:20.234Z,1.20
2022-09-17T20:18:48.427Z,1.55
2022-09-17T20:21:18.534Z,1.40
2022-09-17T20:23:46.565Z,1.58
2022-09-17T20:26:16.551Z,2.00
2022-09-17T20:28:45.309Z,1.10
2022-09-17T20:31:15.609Z,1.42
2022-09-17T20:33:44.043Z,1.63
2022-09-17T20:36:15.080Z,1.67
2022-09-17T20:41:34.296Z,1.83
2022-09-17T20:44:02.391Z,1.90
2022-09-17T20:46:30.310Z,1.90
2022-09-17T20:48:58.796Z,1.73
2022-09-17T20:51:28.491Z,1.60
2022-09-17T20:53:57.881Z,1.38
2022-09-17T20:56:27.728Z,1.50
2022-09-17T20:59:08.579Z,2.00
2022-09-17T21:01:38.038Z,1.70
2022-09-17T21:04:07.939Z,1.60
2022-09-17T21:06:37.739Z,1.67
2022-09-17T21:09:07.357Z,1.58
2022-09-17T21:11:35.881Z,1.85
2022-09-17T21:14:05.778Z,1.50
2022-09-17T21:16:33.888Z,1.95
2022-09-17T21:19:03.180Z,2.03
2022-09-17T21:21:34.369Z,2.05
2022-09-17T21:24:03.404Z,1.40
2022-09-17T21:26:32.366Z,1.60
2022-09-17T21:29:00.467Z,2.00
2022-09-17T21:31:32.971Z,2.38
2022-09-17T21:34:03.158Z,1.60
2022-09-17T21:36:32.864Z,2.10
2022-09-17T21:39:02.512Z,1.58
2022-09-17T21:41:31.035Z,1.92
2022-09-17T21:43:59.187Z,1.85
2022-09-17T21:46:29.980Z,1.70
2022-09-17T21:49:00.042Z,1.63
2022-09-17T21:51:30.594Z,1.65
2022-09-17T21:54:00.506Z,1.65
2022-09-17T21:56:29.640Z,2.10
2022-09-17T21:58:59.754Z,2.55
2022-09-17T22:01:32.034Z,2.20
2022-09-17T22:04:02.113Z,1.83
2022-09-17T22:06:32.243Z,1.60
2022-09-17T22:09:02.210Z,2.15
2022-09-17T22:11:31.908Z,2.05
2022-09-17T22:14:04.877Z,1.75
2022-09-17T22:16:36.002Z,1.77
2022-09-17T22:19:04.948Z,1.75
2022-09-17T22:21:34.550Z,1.65
2022-09-17T22:24:03.638Z,2.00
2022-09-17T22:26:33.972Z,1.70
2022-09-17T22:29:02.914Z,1.77
2022-09-17T22:31:31.188Z,1.90
2022-09-17T22:34:00.747Z,1.50
2022-09-17T22:36:29.439Z,1.65
2022-09-17T22:38:59.340Z,1.50
2022-09-17T22:41:28.872Z,1.58
2022-09-17T22:43:58.346Z,1.60
2022-09-17T22:46:28.535Z,1.98
2022-09-17T22:48:56.910Z,1.77
2022-09-17T22:51:27.797Z,1.60
2022-09-17T22:53:56.180Z,2.13
2022-09-17T22:56:25.184Z,2.20
2022-09-17T22:58:53.142Z,2.08
2022-09-17T23:01:24.083Z,2.20
2022-09-17T23:03:53.074Z,1.92
2022-09-17T23:06:28.908Z,2.00
2022-09-17T23:08:57.360Z,2.03
2022-09-17T23:11:26.933Z,2.05
2022-09-17T23:13:58.453Z,2.05
2022-09-17T23:16:26.483Z,1.48
2022-09-17T23:18:54.392Z,1.40
2022-09-17T23:21:22.669Z,1.50
2022-09-17T23:23:52.471Z,1.80
2022-09-17T23:26:22.484Z,1.80
2022-09-17T23:28:50.983Z,2.03
2022-09-17T23:31:20.889Z,1.50
2022-09-17T23:33:52.089Z,1.50
2022-09-17T23:36:22.182Z,1.35
2022-09-17T23:38:52.362Z,1.45
2022-09-17T23:41:22.485Z,1.40
2022-09-17T23:43:51.891Z,1.70
2022-09-17T23:46:20.871Z,1.88
2022-09-17T23:48:49.554Z,1.90
2022-09-17T23:51:17.521Z,1.60
2022-09-17T23:53:45.538Z,1.95
2022-09-17T23:56:17.950Z,1.17
2022-09-17T23:58:46.470Z,1.48
